Time,TemperatureF,DewpointF,PressureIn,WindDirection,WindDirectionDegrees,WindSpeedMPH,WindSpeedGustMPH,Humidity,HourlyPrecipIn,Conditions,Clouds,dailyrainin,SoftwareType,DateUTC
2013-02-09 00:00:00,26.1,5.1,29.49,NE,45,0.0,0.0,40,0.00,,---,0.00,VWS V14.01,2013-02-09 05:00:00,
2013-02-09 00:30:00,25.3,4.4,29.50,NE,45,0.0,0.0,40,0.00,,---,0.00,VWS V14.01,2013-02-09 05:30:00,
2013-02-09 01:00:00,24.7,3.8,29.52,NE,45,0.0,0.0,40,0.00,,---,0.00,VWS V14.01,2013-02-09 06:00:00,
2013-02-09 01:30:00,23.9,3.1,29.55,NE,45,0.0,0.0,40,0.00,,---,0.00,VWS V14.01,2013-02-09 06:30:00,
2013-02-09 02:00:00,21.8,0.7,29.57,NE,45,0.0,0.0,39,0.00,,---,0.00,VWS V14.01,2013-02-09 07:00:00,
2013-02-09 02:30:00,20.6,-0.4,29.58,NE,45,0.0,0.0,39,0.00,,---,0.00,VWS V14.01,2013-02-09 07:30:00,
2013-02-09 03:00:00,20.6,-0.4,29.58,NE,45,0.0,0.0,39,0.00,,---,0.00,VWS V14.01,2013-02-09 08:00:00,
2013-02-09 03:30:00,20.6,-0.4,29.58,NE,45,0.0,0.0,39,0.00,,---,0.00,VWS V14.01,2013-02-09 08:30:00,
2013-02-09 04:00:00,20.5,-0.5,29.59,NE,45,0.0,0.0,39,0.00,,---,0.00,VWS V14.01,2013-02-09 09:00:00,
2013-02-09 04:30:00,20.5,-0.5,29.60,NE,45,0.0,0.0,39,0.00,,---,0.00,VWS V14.01,2013-02-09 09:30:00,
2013-02-09 05:00:00,21.3,0.8,29.61,NE,45,0.0,0.0,40,0.00,,---,0.00,VWS V14.01,2013-02-09 10:00:00,
2013-02-09 05:30:00,22.5,1.8,29.62,NE,45,0.0,0.0,40,0.00,,---,0.00,VWS V14.01,2013-02-09 10:30:00,
2013-02-09 06:00:00,23.5,2.7,29.62,NE,45,0.0,0.0,40,0.00,,---,0.00,VWS V14.01,2013-02-09 11:00:00,
2013-02-09 06:30:00,24.1,3.3,29.62,NE,45,0.0,0.0,40,0.00,,---,0.00,VWS V14.01,2013-02-09 11:30:00,
2013-02-09 07:00:00,24.7,3.8,29.63,NE,45,0.0,0.0,40,0.00,,---,0.00,VWS V14.01,2013-02-09 12:00:00,
2013-02-09 07:30:00,25.0,4.1,29.65,NE,45,0.0,0.0,40,0.00,,---,0.00,VWS V14.01,2013-02-09 12:30:00,
2013-02-09 08:00:00,24.2,3.4,29.67,NE,45,0.0,0.0,40,0.00,,---,0.00,VWS V14.01,2013-02-09 13:00:00,
2013-02-09 08:30:00,23.3,2.6,29.68,NE,45,0.0,0.0,40,0.00,,---,0.00,VWS V14.01,2013-02-09 13:30:00,
2013-02-09 09:00:00,22.9,2.2,29.69,NE,45,0.0,0.0,40,0.00,,---,0.00,VWS V14.01,2013-02-09 14:00:00,
2013-02-09 09:30:00,22.4,1.8,29.71,NE,45,0.0,0.0,40,0.00,,---,0.00,VWS V14.01,2013-02-09 14:30:00,
2013-02-09 10:00:00,21.8,0.7,29.72,NE,45,0.0,0.0,39,0.00,,---,0.00,VWS V14.01,2013-02-09 15:00:00,
2013-02-09 10:30:00,21.4,0.3,29.74,NE,45,0.0,0.0,39,0.00,,---,0.00,VWS V14.01,2013-02-09 15:30:00,
2013-02-09 11:00:00,21.4,0.3,29.75,NE,45,0.0,0.0,39,0.00,,---,0.00,VWS V14.01,2013-02-09 16:00:00,
2013-02-09 11:30:00,21.6,0.5,29.76,NE,45,0.0,0.0,39,0.00,,---,0.00,VWS V14.01,2013-02-09 16:30:00,
2013-02-09 12:00:00,21.8,0.7,29.78,NE,45,0.0,0.0,39,0.00,,---,0.00,VWS V14.01,2013-02-09 17:00:00,
2013-02-09 12:30:00,21.6,0.5,29.79,NE,45,0.0,0.0,39,0.00,,---,0.00,VWS V14.01,2013-02-09 17:30:00,
2013-02-09 13:00:00,22.1,0.4,29.80,NE,45,0.0,0.0,38,0.00,,---,0.00,VWS V14.01,2013-02-09 18:00:00,
2013-02-09 13:30:00,23.9,2.6,29.81,NE,45,0.0,0.0,39,0.00,,---,0.00,VWS V14.01,2013-02-09 18:30:00,
2013-02-09 14:00:00,23.3,1.5,29.81,NE,45,0.0,0.0,38,0.00,,---,0.00,VWS V14.01,2013-02-09 19:00:00,
2013-02-09 14:30:00,22.5,0.7,29.83,NE,45,0.0,0.0,38,0.00,,---,0.00,VWS V14.01,2013-02-09 19:30:00,
2013-02-09 15:00:00,22.7,0.3,29.84,NE,45,0.0,0.0,37,0.00,,---,0.00,VWS V14.01,2013-02-09 20:00:00,
2013-02-09 15:30:00,23.8,1.3,29.87,NE,45,0.0,0.0,37,0.00,,---,0.00,VWS V14.01,2013-02-09 20:30:00,
2013-02-09 16:00:00,24.1,1.6,29.89,NE,45,0.0,0.0,37,0.00,,---,0.00,VWS V14.01,2013-02-09 21:00:00,
2013-02-09 16:30:00,24.5,1.4,29.90,NE,45,0.0,0.0,36,0.01,,---,0.01,VWS V14.01,2013-02-09 21:30:00,
2013-02-09 17:00:00,24.1,1.0,29.92,NE,45,0.0,0.0,36,0.01,,---,0.01,VWS V14.01,2013-02-09 22:00:00,
2013-02-09 17:30:00,23.8,0.8,29.93,NE,45,0.0,0.0,36,0.01,,---,0.01,VWS V14.01,2013-02-09 22:30:00,
2013-02-09 18:00:00,22.9,-0.6,29.95,NNW,338,7.0,19.0,35,0.00,,---,0.01,VWS V14.01,2013-02-09 23:00:00,
2013-02-09 18:30:00,22.5,-1.0,29.98,NNW,338,5.0,16.0,35,0.00,,---,0.01,VWS V14.01,2013-02-09 23:30:00,
2013-02-09 19:00:00,22.1,-1.4,30.01,NNW,338,6.0,15.0,35,0.00,,---,0.01,VWS V14.01,2013-02-10 00:00:00,
2013-02-09 19:30:00,21.6,-1.8,30.04,NNW,338,7.0,20.0,35,0.00,,---,0.01,VWS V14.01,2013-02-10 00:30:00,
2013-02-09 20:00:00,22.4,-1.1,30.06,NNW,338,7.0,19.0,35,0.00,,---,0.01,VWS V14.01,2013-02-10 01:00:00,
2013-02-09 20:30:00,22.9,-0.6,30.07,North,0,7.0,17.0,35,0.00,,---,0.01,VWS V14.01,2013-02-10 01:30:00,
2013-02-09 21:00:00,22.7,-0.8,30.09,NNW,338,4.0,13.0,35,0.00,,---,0.01,VWS V14.01,2013-02-10 02:00:00,
2013-02-09 21:30:00,22.2,-1.3,30.10,NNW,338,3.0,11.0,35,0.00,,---,0.01,VWS V14.01,2013-02-10 02:30:00,
2013-02-09 22:00:00,21.8,-1.6,30.12,NNW,338,3.0,14.0,35,0.00,,---,0.01,VWS V14.01,2013-02-10 03:00:00,
2013-02-09 22:30:00,21.8,-1.6,30.13,NNW,338,3.0,10.0,35,0.00,,---,0.01,VWS V14.01,2013-02-10 03:30:00,
2013-02-09 23:00:00,21.1,-2.3,30.15,North,0,4.0,13.0,35,0.00,,---,0.01,VWS V14.01,2013-02-10 04:00:00,
2013-02-09 23:30:00,21.0,-3.0,30.16,NNW,338,5.0,16.0,34,0.00,,---,0.01,VWS V14.01,2013-02-10 04:30:00,